createdAt,value
2023-02-02T00:01:34.437Z,3.87
2023-02-02T00:04:01.892Z,4.63
2023-02-02T00:06:30.329Z,5.00
2023-02-02T00:08:58.896Z,4.40
2023-02-02T00:11:27.292Z,4.00
2023-02-02T00:13:54.310Z,3.97
2023-02-02T00:16:27.168Z,4.43
2023-02-02T00:18:56.896Z,5.17
2023-02-02T00:21:24.070Z,5.20
2023-02-02T00:23:51.246Z,4.37
2023-02-02T00:26:18.622Z,2.90
2023-02-02T00:28:45.811Z,3.63
2023-02-02T00:31:12.903Z,4.17
2023-02-02T00:33:39.624Z,2.97
2023-02-02T00:36:07.123Z,3.33
2023-02-02T00:38:34.696Z,3.67
2023-02-02T00:41:01.690Z,3.27
2023-02-02T00:43:28.533Z,4.67
2023-02-02T00:45:55.941Z,4.60
2023-02-02T00:48:22.847Z,3.63
2023-02-02T00:50:49.825Z,4.20
2023-02-02T00:53:16.537Z,3.70
2023-02-02T00:55:44.054Z,3.43
2023-02-02T00:58:10.894Z,3.93
2023-02-02T01:00:37.979Z,4.87
2023-02-02T01:03:06.075Z,3.83
2023-02-02T01:05:34.586Z,3.33
2023-02-02T01:08:01.631Z,4.03
2023-02-02T01:10:28.966Z,4.10
2023-02-02T01:12:55.856Z,4.27
2023-02-02T01:15:23.135Z,3.80
2023-02-02T01:17:50.312Z,4.00
2023-02-02T01:20:19.969Z,3.10
2023-02-02T01:22:47.497Z,3.27
2023-02-02T01:25:14.679Z,4.30
2023-02-02T01:27:43.273Z,3.93
2023-02-02T01:30:11.235Z,3.23
2023-02-02T01:32:37.987Z,3.40
2023-02-02T01:35:05.460Z,3.30
2023-02-02T01:37:32.291Z,3.47
2023-02-02T01:39:59.753Z,3.33
2023-02-02T01:42:26.517Z,3.00
2023-02-02T01:45:13.461Z,3.27
2023-02-02T01:47:46.835Z,3.10
2023-02-02T01:50:16.459Z,3.03
2023-02-02T01:52:48.620Z,3.07
2023-02-02T01:55:19.047Z,3.30
2023-02-02T01:57:54.850Z,2.97
2023-02-02T02:00:27.226Z,3.07
2023-02-02T02:02:59.219Z,3.40
2023-02-02T02:05:31.990Z,3.33
2023-02-02T02:08:20.286Z,2.90
2023-02-02T02:10:48.177Z,3.33
2023-02-02T02:13:16.213Z,3.03
2023-02-02T02:16:17.906Z,3.03
2023-02-02T02:19:19.676Z,2.93
2023-02-02T02:22:48.408Z,3.17
2023-02-02T02:26:15.966Z,2.77
2023-02-02T02:29:06.693Z,3.77
2023-02-02T02:32:02.868Z,2.77
2023-02-02T02:34:53.914Z,3.30
2023-02-02T02:37:34.214Z,3.57
2023-02-02T02:40:27.471Z,3.40
2023-02-02T02:42:59.561Z,4.37
2023-02-02T02:45:28.941Z,3.10
2023-02-02T02:47:56.723Z,4.03
2023-02-02T02:50:25.126Z,4.23
2023-02-02T02:53:06.388Z,2.90
2023-02-02T02:59:18.380Z,3.93
2023-02-02T03:02:04.442Z,2.63
2023-02-02T03:04:51.338Z,2.80
2023-02-02T03:07:26.071Z,3.20
2023-02-02T03:09:56.607Z,3.30
2023-02-02T03:12:24.391Z,2.90
2023-02-02T03:14:51.174Z,3.37
2023-02-02T03:17:18.283Z,4.97
2023-02-02T03:19:45.330Z,3.33
2023-02-02T03:22:12.348Z,4.63
2023-02-02T03:24:39.066Z,2.97
2023-02-02T03:27:06.111Z,3.20
2023-02-02T03:29:33.114Z,2.97
2023-02-02T03:32:00.224Z,2.70
2023-02-02T03:34:26.908Z,2.57
2023-02-02T03:36:53.909Z,2.87
2023-02-02T03:39:20.599Z,2.87
2023-02-02T03:41:47.661Z,3.77
2023-02-02T03:44:14.484Z,3.13
2023-02-02T03:46:41.648Z,2.57
2023-02-02T03:49:08.498Z,3.63
2023-02-02T03:51:35.494Z,2.20
2023-02-02T03:54:02.217Z,3.13
2023-02-02T03:56:29.292Z,2.93
2023-02-02T03:58:56.009Z,3.80
2023-02-02T04:01:28.958Z,2.47
2023-02-02T04:03:56.961Z,2.03
2023-02-02T04:06:24.807Z,2.67
2023-02-02T04:08:52.236Z,2.30
2023-02-02T04:11:19.306Z,2.17
2023-02-02T04:13:46.118Z,2.10
2023-02-02T04:16:13.481Z,1.80
2023-02-02T04:18:40.466Z,1.83
2023-02-02T04:21:08.677Z,2.30
2023-02-02T04:23:35.815Z,1.83
2023-02-02T04:26:03.432Z,1.80
2023-02-02T04:28:30.194Z,1.50
2023-02-02T04:30:57.811Z,1.50
2023-02-02T04:33:26.422Z,1.60
2023-02-02T04:35:53.849Z,1.80
2023-02-02T04:38:20.572Z,1.60
2023-02-02T04:40:48.451Z,1.53
2023-02-02T04:43:15.524Z,1.20
2023-02-02T04:45:42.627Z,1.33
2023-02-02T04:48:09.972Z,1.47
2023-02-02T04:50:36.991Z,1.10
2023-02-02T04:53:04.559Z,1.50
2023-02-02T04:55:31.568Z,1.30
2023-02-02T04:57:58.293Z,1.27
2023-02-02T05:00:25.347Z,1.10
2023-02-02T05:02:52.051Z,1.23
2023-02-02T05:05:20.450Z,1.40
2023-02-02T05:07:47.246Z,2.30
2023-02-02T05:10:14.391Z,1.57
2023-02-02T05:12:41.110Z,1.43
2023-02-02T05:15:08.817Z,2.37
2023-02-02T05:17:35.557Z,1.73
2023-02-02T05:20:02.643Z,2.20
2023-02-02T05:22:29.491Z,2.00
2023-02-02T05:24:56.491Z,1.73
2023-02-02T05:27:23.247Z,2.50
2023-02-02T05:29:50.267Z,2.73
2023-02-02T05:32:17.000Z,3.30
2023-02-02T05:34:43.979Z,4.17
2023-02-02T05:37:10.766Z,5.37
2023-02-02T05:39:37.877Z,4.63
2023-02-02T05:42:04.730Z,6.13
2023-02-02T05:44:31.807Z,6.13
2023-02-02T05:46:58.541Z,6.73
2023-02-02T05:49:25.760Z,6.80
2023-02-02T05:51:57.050Z,6.63
2023-02-02T05:54:24.732Z,7.43
2023-02-02T05:56:54.546Z,6.60
2023-02-02T05:59:22.119Z,6.60
2023-02-02T06:01:49.381Z,6.47
2023-02-02T06:04:16.698Z,6.83
2023-02-02T06:06:44.116Z,6.20
2023-02-02T06:09:11.372Z,6.37
2023-02-02T06:11:39.512Z,6.33
2023-02-02T06:14:07.641Z,8.00
2023-02-02T06:16:34.897Z,6.53
2023-02-02T06:19:01.960Z,6.30
2023-02-02T06:21:31.189Z,7.50
2023-02-02T06:23:58.989Z,5.80
2023-02-02T06:26:27.121Z,6.20
2023-02-02T06:28:54.690Z,4.97
2023-02-02T06:31:22.537Z,5.23
2023-02-02T06:33:54.468Z,4.63
2023-02-02T06:36:21.883Z,3.60
2023-02-02T06:38:50.600Z,3.67
2023-02-02T06:41:18.418Z,4.10
2023-02-02T06:43:45.436Z,3.40
2023-02-02T06:46:12.605Z,3.20
2023-02-02T06:48:39.724Z,3.30
2023-02-02T06:51:06.904Z,4.50
2023-02-02T06:53:35.100Z,4.10
2023-02-02T06:56:05.194Z,5.37
2023-02-02T06:58:33.662Z,4.27
2023-02-02T07:01:11.560Z,4.70
2023-02-02T07:03:39.596Z,4.80
2023-02-02T07:06:13.589Z,4.57
2023-02-02T07:08:40.690Z,3.50
2023-02-02T07:11:14.414Z,3.17
2023-02-02T07:13:44.681Z,3.33
2023-02-02T07:16:13.157Z,3.73
2023-02-02T07:18:40.783Z,3.63
2023-02-02T07:21:07.489Z,4.10
2023-02-02T07:23:34.678Z,3.43
2023-02-02T07:26:07.021Z,4.03
2023-02-02T07:28:34.967Z,4.07
2023-02-02T07:31:12.184Z,5.27
2023-02-02T07:33:41.751Z,5.97
2023-02-02T07:36:08.756Z,6.17
2023-02-02T07:38:35.745Z,5.77
2023-02-02T07:41:03.429Z,6.03
2023-02-02T07:43:30.801Z,5.60
2023-02-02T07:46:08.154Z,5.83
2023-02-02T07:48:36.128Z,6.10
2023-02-02T07:51:08.137Z,5.77
2023-02-02T07:53:35.716Z,5.97
2023-02-02T07:56:06.728Z,5.70
2023-02-02T07:58:33.713Z,6.37
2023-02-02T08:01:04.891Z,6.60
2023-02-02T08:03:32.406Z,5.63
2023-02-02T08:05:59.658Z,5.37
2023-02-02T08:08:26.813Z,6.10
2023-02-02T08:10:54.357Z,5.37
2023-02-02T08:13:21.413Z,5.13
2023-02-02T08:15:48.355Z,5.53
2023-02-02T08:18:15.614Z,6.20
2023-02-02T08:20:43.005Z,6.00
2023-02-02T08:23:17.357Z,6.00
2023-02-02T08:25:45.846Z,5.73
2023-02-02T08:28:12.902Z,5.40
2023-02-02T08:30:39.771Z,5.60
2023-02-02T08:33:06.810Z,6.93
2023-02-02T08:35:33.818Z,6.90
2023-02-02T08:38:05.307Z,7.33
2023-02-02T08:40:32.244Z,5.93
2023-02-02T08:43:00.033Z,6.30
2023-02-02T08:46:01.394Z,4.77
2023-02-02T08:48:16.997Z,5.13
2023-02-02T08:50:43.715Z,4.43
2023-02-02T08:53:10.817Z,5.07
2023-02-02T08:55:37.541Z,4.47
2023-02-02T08:58:05.268Z,4.40
2023-02-02T09:00:32.085Z,4.80
2023-02-02T09:02:59.116Z,3.90
2023-02-02T09:05:26.426Z,4.43
2023-02-02T09:07:53.631Z,4.43
2023-02-02T09:10:20.467Z,3.93
2023-02-02T09:12:47.476Z,3.63
2023-02-02T09:15:14.276Z,3.40
2023-02-02T09:17:41.380Z,3.50
2023-02-02T09:20:08.567Z,2.30
2023-02-02T09:22:35.546Z,2.57
2023-02-02T09:25:02.283Z,2.30
2023-02-02T09:27:29.373Z,2.00
2023-02-02T09:29:56.108Z,1.80
2023-02-02T09:32:23.110Z,1.70
2023-02-02T09:34:49.819Z,1.80
2023-02-02T09:37:16.828Z,1.83
2023-02-02T09:39:43.662Z,1.87
2023-02-02T09:42:32.502Z,1.70
2023-02-02T09:45:07.902Z,1.80
2023-02-02T09:47:55.851Z,1.67
2023-02-02T09:50:44.038Z,1.63
2023-02-02T09:53:27.596Z,1.83
2023-02-02T09:55:58.487Z,1.43
2023-02-02T09:58:36.637Z,1.40
2023-02-02T10:01:09.510Z,1.13
2023-02-02T10:03:54.554Z,1.10
2023-02-02T10:06:26.367Z,1.50
2023-02-02T10:08:57.579Z,1.13
2023-02-02T10:11:31.060Z,1.03
2023-02-02T10:14:05.052Z,1.30
2023-02-02T10:16:34.088Z,1.10
2023-02-02T10:19:13.738Z,0.70
2023-02-02T10:21:54.250Z,0.93
2023-02-02T10:24:24.419Z,0.83
2023-02-02T10:26:56.775Z,1.33
2023-02-02T10:29:28.097Z,0.90
2023-02-02T10:32:23.399Z,0.93
2023-02-02T10:35:14.684Z,0.80
2023-02-02T10:38:22.797Z,0.90
2023-02-02T10:41:22.293Z,1.20
2023-02-02T10:44:02.403Z,1.03
2023-02-02T10:46:43.072Z,0.90
2023-02-02T10:49:12.917Z,1.20
2023-02-02T10:51:41.220Z,0.60
2023-02-02T10:54:24.494Z,1.70
2023-02-02T10:56:54.032Z,2.37
2023-02-02T10:59:41.753Z,2.20
2023-02-02T11:02:20.726Z,1.40
2023-02-02T11:05:06.617Z,1.27
2023-02-02T11:07:33.630Z,1.10
2023-02-02T11:10:00.374Z,0.70
2023-02-02T11:12:52.963Z,1.20
2023-02-02T11:15:25.746Z,1.53
2023-02-02T11:17:52.822Z,1.60
2023-02-02T11:20:33.712Z,1.40
2023-02-02T11:23:03.525Z,1.10
2023-02-02T11:25:36.766Z,1.07
2023-02-02T11:28:21.144Z,1.07
2023-02-02T11:30:52.409Z,1.50
2023-02-02T11:33:34.776Z,1.07
2023-02-02T11:36:18.033Z,1.20
2023-02-02T11:38:45.101Z,0.87
2023-02-02T11:41:13.826Z,0.90
2023-02-02T11:43:47.681Z,0.83
2023-02-02T11:46:24.752Z,0.90
2023-02-02T11:49:02.332Z,1.07
2023-02-02T11:51:30.837Z,0.97
2023-02-02T11:54:16.998Z,1.20
2023-02-02T11:56:49.698Z,1.07
2023-02-02T11:59:29.091Z,1.80
2023-02-02T12:02:14.741Z,1.53
2023-02-02T12:04:41.787Z,2.03
2023-02-02T12:07:35.821Z,1.93
2023-02-02T12:10:19.569Z,1.60
2023-02-02T12:13:08.336Z,1.53
2023-02-02T12:15:44.059Z,1.93
2023-02-02T12:18:50.792Z,1.40
2023-02-02T12:21:26.874Z,2.13
2023-02-02T12:24:00.136Z,6.80
2023-02-02T12:26:37.110Z,7.60
2023-02-02T12:29:18.793Z,8.47
2023-02-02T12:32:01.242Z,8.07
2023-02-02T12:34:52.639Z,6.17
2023-02-02T12:37:39.389Z,5.50
2023-02-02T12:40:34.619Z,6.70
2023-02-02T12:43:19.252Z,7.87
2023-02-02T12:45:58.818Z,5.77
2023-02-02T12:48:38.838Z,4.53
2023-02-02T12:51:47.866Z,4.00
2023-02-02T12:54:46.763Z,5.60
2023-02-02T12:57:31.652Z,6.70
2023-02-02T13:00:17.823Z,7.13
2023-02-02T13:03:01.815Z,6.97
2023-02-02T13:05:55.272Z,7.90
2023-02-02T13:08:35.780Z,7.77
2023-02-02T13:11:31.021Z,6.77
2023-02-02T13:14:16.220Z,5.80
2023-02-02T13:16:48.510Z,5.60
2023-02-02T13:19:40.470Z,5.47
2023-02-02T13:22:14.614Z,4.50
2023-02-02T13:24:44.381Z,4.77
2023-02-02T13:27:17.894Z,4.30
2023-02-02T13:29:51.619Z,4.43
2023-02-02T13:32:33.354Z,4.17
2023-02-02T13:35:05.290Z,4.10
2023-02-02T13:37:40.951Z,5.13
2023-02-02T13:40:39.800Z,5.10
2023-02-02T13:43:22.578Z,5.90
2023-02-02T13:45:55.968Z,4.63
2023-02-02T13:48:25.704Z,4.30
2023-02-02T13:51:13.648Z,4.37
2023-02-02T13:54:16.909Z,4.30
2023-02-02T13:57:05.958Z,3.83
2023-02-02T13:59:35.691Z,3.90
2023-02-02T14:02:03.555Z,3.30
2023-02-02T14:04:31.564Z,4.37
2023-02-02T14:09:37.045Z,4.37
2023-02-02T14:12:09.770Z,5.17
2023-02-02T14:14:39.847Z,5.10
2023-02-02T14:17:17.329Z,4.70
2023-02-02T14:19:49.258Z,3.47
2023-02-02T14:22:37.971Z,2.00
2023-02-02T14:25:29.741Z,1.27
2023-02-02T14:28:02.308Z,1.20
2023-02-02T14:30:32.773Z,1.37
2023-02-02T14:33:21.463Z,1.60
2023-02-02T14:35:48.677Z,2.37
2023-02-02T14:38:51.017Z,2.70
2023-02-02T14:42:00.912Z,3.30
2023-02-02T14:44:28.699Z,2.77
2023-02-02T14:46:56.155Z,2.57
2023-02-02T14:49:27.412Z,3.07
2023-02-02T14:51:59.532Z,3.00
2023-02-02T14:54:37.397Z,3.20
2023-02-02T14:57:27.297Z,2.23
2023-02-02T14:59:55.932Z,2.03
2023-02-02T15:02:32.599Z,2.60
2023-02-02T15:05:28.180Z,2.90
2023-02-02T15:08:20.389Z,2.30
2023-02-02T15:10:56.735Z,1.93
2023-02-02T15:13:28.920Z,1.70
2023-02-02T15:16:07.555Z,1.13
2023-02-02T15:18:44.317Z,0.70
2023-02-02T15:21:17.005Z,1.00
2023-02-02T15:23:46.163Z,0.60
2023-02-02T15:26:27.964Z,0.90
2023-02-02T15:29:01.420Z,0.90
2023-02-02T15:31:39.553Z,1.50
2023-02-02T15:34:17.367Z,1.50
2023-02-02T15:36:48.133Z,1.20
2023-02-02T15:39:31.989Z,1.60
2023-02-02T15:42:20.660Z,0.87
2023-02-02T15:44:47.757Z,1.00
2023-02-02T15:47:22.095Z,0.70
2023-02-02T15:49:49.234Z,0.80
2023-02-02T15:52:21.079Z,0.93
2023-02-02T15:54:59.549Z,0.93
2023-02-02T15:57:34.446Z,1.00
2023-02-02T16:00:26.373Z,0.90
2023-02-02T16:03:04.209Z,0.70
2023-02-02T16:05:31.426Z,1.37
2023-02-02T16:08:06.524Z,1.23
2023-02-02T16:10:35.291Z,1.50
2023-02-02T16:13:03.466Z,1.30
2023-02-02T16:15:34.228Z,1.30
2023-02-02T16:18:10.648Z,1.30
2023-02-02T16:20:38.879Z,1.50
2023-02-02T16:23:14.164Z,1.20
2023-02-02T16:25:53.190Z,1.20
2023-02-02T16:28:24.892Z,1.60
2023-02-02T16:30:53.004Z,1.27
2023-02-02T16:33:41.498Z,1.10
2023-02-02T16:36:25.006Z,1.20
2023-02-02T16:38:54.540Z,1.27
2023-02-02T16:41:32.982Z,1.47
2023-02-02T16:44:36.976Z,1.53
2023-02-02T16:47:06.951Z,1.80
2023-02-02T16:49:35.199Z,1.80
2023-02-02T16:52:15.786Z,1.93
2023-02-02T16:54:51.555Z,1.40
2023-02-02T16:57:23.003Z,2.07
2023-02-02T16:59:54.061Z,2.00
2023-02-02T17:02:27.038Z,1.87
2023-02-02T17:05:21.621Z,1.70
2023-02-02T17:07:55.620Z,1.60
2023-02-02T17:10:25.335Z,1.60
2023-02-02T17:12:52.939Z,1.43
2023-02-02T17:15:19.628Z,1.80
2023-02-02T17:17:48.727Z,1.87
2023-02-02T17:20:17.830Z,1.73
2023-02-02T17:22:56.406Z,1.50
2023-02-02T17:25:35.073Z,1.70
2023-02-02T17:28:03.691Z,1.83
2023-02-02T17:30:30.748Z,2.33
2023-02-02T17:32:57.872Z,1.90
2023-02-02T17:35:27.108Z,2.23
2023-02-02T17:37:55.001Z,2.60
2023-02-02T17:40:24.026Z,3.70
2023-02-02T17:42:53.213Z,3.80
2023-02-02T17:45:22.637Z,4.20
2023-02-02T17:47:51.168Z,5.30
2023-02-02T17:50:18.541Z,4.63
2023-02-02T17:52:46.202Z,4.43
2023-02-02T17:55:18.799Z,5.00
2023-02-02T17:57:47.314Z,4.73
2023-02-02T18:00:15.460Z,4.90
2023-02-02T18:02:42.878Z,4.70
2023-02-02T18:05:11.385Z,5.70
2023-02-02T18:07:39.059Z,5.37
2023-02-02T18:10:07.288Z,5.90
2023-02-02T18:12:36.999Z,5.20
2023-02-02T18:15:06.348Z,5.10
2023-02-02T18:17:34.172Z,5.50
2023-02-02T18:20:01.018Z,4.90
2023-02-02T18:22:28.108Z,5.70
2023-02-02T18:24:55.065Z,5.70
2023-02-02T18:27:22.117Z,5.67
2023-02-02T18:29:48.882Z,6.90
2023-02-02T18:32:17.679Z,7.97
2023-02-02T18:34:45.663Z,6.90
2023-02-02T18:37:12.729Z,8.27
2023-02-02T18:39:39.545Z,8.63
2023-02-02T18:42:06.609Z,7.87
2023-02-02T18:44:35.256Z,7.70
2023-02-02T18:47:02.481Z,7.40
2023-02-02T18:49:29.199Z,6.23
2023-02-02T18:51:56.272Z,5.80
2023-02-02T18:54:23.469Z,4.27
2023-02-02T18:56:50.610Z,5.63
2023-02-02T18:59:17.475Z,4.97
2023-02-02T19:01:44.534Z,5.40
2023-02-02T19:04:11.638Z,5.47
2023-02-02T19:06:57.245Z,5.20
2023-02-02T19:09:24.779Z,4.87
2023-02-02T19:11:55.048Z,5.33
2023-02-02T19:14:27.173Z,5.83
2023-02-02T19:16:59.628Z,4.37
2023-02-02T19:19:30.208Z,5.20
2023-02-02T19:21:58.448Z,5.53
2023-02-02T19:24:27.113Z,3.80
2023-02-02T19:26:54.764Z,4.03
2023-02-02T19:29:24.965Z,5.57
2023-02-02T19:32:09.347Z,5.97
2023-02-02T19:34:36.108Z,6.40
2023-02-02T19:37:15.586Z,5.67
2023-02-02T19:39:44.132Z,6.73
2023-02-02T19:42:11.586Z,6.47
2023-02-02T19:44:40.579Z,6.87
2023-02-02T19:47:21.521Z,6.90
2023-02-02T19:49:48.283Z,7.53
2023-02-02T19:52:21.755Z,9.27
2023-02-02T19:54:49.616Z,15.30
2023-02-02T19:57:27.206Z,15.27
2023-02-02T19:59:54.779Z,16.13
2023-02-02T20:02:29.278Z,13.03
2023-02-02T20:05:14.959Z,12.33
2023-02-02T20:07:42.094Z,12.83
2023-02-02T20:10:27.792Z,12.47
2023-02-02T20:12:55.125Z,12.13
2023-02-02T20:15:32.118Z,6.30
2023-02-02T20:18:01.917Z,5.73
2023-02-02T20:20:38.922Z,5.47
2023-02-02T20:23:20.243Z,5.40
2023-02-02T20:25:46.933Z,4.83
2023-02-02T20:28:41.784Z,5.80
2023-02-02T20:31:11.200Z,4.47
2023-02-02T20:33:42.517Z,5.57
2023-02-02T20:36:37.550Z,4.97
2023-02-02T20:39:39.635Z,6.40
2023-02-02T20:42:06.394Z,7.80
2023-02-02T20:44:34.847Z,6.57
2023-02-02T20:47:02.620Z,7.03
2023-02-02T20:49:31.791Z,10.30
2023-02-02T20:52:02.144Z,9.40
2023-02-02T20:54:30.592Z,9.87
2023-02-02T20:56:57.963Z,11.17
2023-02-02T20:59:25.085Z,11.70
2023-02-02T21:01:52.923Z,9.97
2023-02-02T21:04:21.616Z,10.37
2023-02-02T21:06:49.212Z,8.73
2023-02-02T21:09:17.452Z,7.77
2023-02-02T21:11:44.485Z,7.80
2023-02-02T21:14:11.515Z,8.67
2023-02-02T21:16:38.554Z,9.47
2023-02-02T21:19:05.706Z,8.63
2023-02-02T21:21:32.459Z,11.13
2023-02-02T21:24:00.793Z,11.33
2023-02-02T21:26:30.262Z,6.90
2023-02-02T21:28:58.443Z,5.47
2023-02-02T21:31:26.291Z,6.73
2023-02-02T21:33:53.871Z,6.73
2023-02-02T21:36:34.496Z,6.70
2023-02-02T21:39:19.233Z,6.40
2023-02-02T21:41:46.142Z,7.60
2023-02-02T21:44:15.884Z,6.90
2023-02-02T21:46:43.486Z,7.40
2023-02-02T21:49:20.360Z,7.07
2023-02-02T21:51:47.234Z,5.40
2023-02-02T21:54:20.065Z,5.20
2023-02-02T21:56:47.297Z,5.53
2023-02-02T21:59:20.622Z,6.23
2023-02-02T22:01:49.631Z,5.83
2023-02-02T22:04:31.198Z,6.77
2023-02-02T22:07:12.525Z,6.37
2023-02-02T22:09:42.629Z,7.00
2023-02-02T22:12:24.063Z,6.47
2023-02-02T22:15:00.592Z,6.07
2023-02-02T22:17:41.074Z,5.77
2023-02-02T22:20:29.967Z,5.20
2023-02-02T22:22:56.799Z,5.13
2023-02-02T22:25:35.995Z,5.43
2023-02-02T22:28:11.134Z,5.50
2023-02-02T22:30:40.495Z,5.90
2023-02-02T22:33:09.771Z,5.40
2023-02-02T22:35:37.388Z,5.60
2023-02-02T22:38:05.318Z,6.70
2023-02-02T22:40:32.421Z,5.27
2023-02-02T22:43:01.208Z,5.87
2023-02-02T22:45:28.292Z,7.60
2023-02-02T22:47:55.227Z,6.60
2023-02-02T22:50:25.658Z,6.97
2023-02-02T22:52:52.821Z,7.00
2023-02-02T22:55:20.201Z,8.63
2023-02-02T22:57:47.141Z,8.50
2023-02-02T23:00:17.939Z,9.00
2023-02-02T23:02:44.786Z,9.37
2023-02-02T23:05:13.853Z,9.40
2023-02-02T23:07:43.992Z,9.17
2023-02-02T23:10:16.733Z,7.63
2023-02-02T23:12:44.104Z,7.60
2023-02-02T23:15:11.568Z,8.20
2023-02-02T23:17:38.705Z,6.60
2023-02-02T23:20:09.755Z,7.40
2023-02-02T23:22:36.518Z,6.30
2023-02-02T23:25:04.209Z,6.50
2023-02-02T23:27:31.315Z,7.73
2023-02-02T23:29:58.338Z,7.00
2023-02-02T23:32:25.056Z,6.67
2023-02-02T23:34:52.109Z,7.53
2023-02-02T23:37:18.850Z,6.37
2023-02-02T23:39:45.896Z,6.47
2023-02-02T23:42:12.787Z,6.67
2023-02-02T23:44:39.883Z,7.10
2023-02-02T23:47:07.044Z,6.77
2023-02-02T23:49:34.466Z,7.00
2023-02-02T23:52:01.299Z,8.20
2023-02-02T23:54:29.567Z,10.60
2023-02-02T23:56:57.389Z,8.97
2023-02-02T23:59:24.458Z,7.67
